NKS1494 KDFW-KATL
Flight info
| Callsign | NKS1494 |
|---|---|
| Flight time | 1h 43m |
| Altitude | 37000 |
| Route | TRYTN4 LOOSE MEMFS HUTCC KNSAW RUSSA GLAVN2 |
| Aircraft | A321/M-SDE3FGHIRWY/LB1 |
Departure
| Time | 2026-05-03 22:12 |
|---|---|
| Airport | Dallas Fort Worth International Airport (KDFW) |
Arrival
| Time | 2026-05-03 23:55 |
|---|---|
| Airport | Hartsfield Jackson Atlanta International Airport (KATL) |
| Time | Latitude | Longitude | Altitude | Speed | Heading |
|---|---|---|---|---|---|
| 2026-05-03 21:41 | 32.88817 | -97.03616 | 626 ft | 0 kts | 322° |
| 2026-05-03 22:02 | 32.88802 | -97.03602 | 618 ft | 4 kts | 320° |
| 2026-05-03 22:02 | 32.88786 | -97.03580 | 609 ft | 4 kts | 276° |
| 2026-05-03 22:02 | 32.88791 | -97.03557 | 616 ft | 2 kts | 222° |
| 2026-05-03 22:03 | 32.88792 | -97.03555 | 617 ft | 0 kts | 221° |
| 2026-05-03 22:04 | 32.88779 | -97.03569 | 630 ft | 7 kts | 221° |
| 2026-05-03 22:05 | 32.88728 | -97.03612 | 622 ft | 8 kts | 177° |
| 2026-05-03 22:05 | 32.88692 | -97.03573 | 616 ft | 6 kts | 139° |
| 2026-05-03 22:05 | 32.88661 | -97.03561 | 624 ft | 5 kts | 178° |
| 2026-05-03 22:05 | 32.88612 | -97.03518 | 623 ft | 15 kts | 111° |
| 2026-05-03 22:06 | 32.88605 | -97.03381 | 616 ft | 16 kts | 79° |
| 2026-05-03 22:06 | 32.88687 | -97.03333 | 621 ft | 13 kts | 7° |
| 2026-05-03 22:06 | 32.88767 | -97.03332 | 619 ft | 11 kts | 4° |
| 2026-05-03 22:06 | 32.88886 | -97.03322 | 619 ft | 22 kts | 4° |
| 2026-05-03 22:07 | 32.89033 | -97.03320 | 621 ft | 20 kts | 358° |
| 2026-05-03 22:07 | 32.89162 | -97.03320 | 620 ft | 17 kts | 1° |
| 2026-05-03 22:07 | 32.89274 | -97.03314 | 623 ft | 16 kts | 4° |
| 2026-05-03 22:07 | 32.89405 | -97.03316 | 624 ft | 20 kts | 359° |
| 2026-05-03 22:08 | 32.89542 | -97.03317 | 620 ft | 19 kts | 1° |
| 2026-05-03 22:08 | 32.89678 | -97.03317 | 619 ft | 20 kts | 358° |
| 2026-05-03 22:08 | 32.89820 | -97.03317 | 616 ft | 21 kts | 1° |
| 2026-05-03 22:08 | 32.89979 | -97.03313 | 622 ft | 29 kts | 1° |
| 2026-05-03 22:09 | 32.90214 | -97.03312 | 623 ft | 35 kts | 360° |
| 2026-05-03 22:09 | 32.90460 | -97.03310 | 620 ft | 35 kts | 0° |
| 2026-05-03 22:09 | 32.90707 | -97.03310 | 619 ft | 36 kts | 0° |
| 2026-05-03 22:10 | 32.91167 | -97.03240 | 621 ft | 33 kts | 15° |
| 2026-05-03 22:10 | 32.91397 | -97.03212 | 620 ft | 33 kts | 5° |
| 2026-05-03 22:10 | 32.91509 | -97.03165 | 620 ft | 7 kts | 98° |
| 2026-05-03 22:10 | 32.91490 | -97.03107 | 618 ft | 9 kts | 96° |
| 2026-05-03 22:11 | 32.91466 | -97.02999 | 627 ft | 15 kts | 143° |
| 2026-05-03 22:11 | 32.91281 | -97.02989 | 622 ft | 55 kts | 180° |
| 2026-05-03 22:11 | 32.90657 | -97.02994 | 625 ft | 122 kts | 180° |
| 2026-05-03 22:11 | 32.89619 | -97.03001 | 621 ft | 173 kts | 180° |
| 2026-05-03 22:12 | 32.88387 | -97.03010 | 1234 ft | 172 kts | 184° |
| 2026-05-03 22:12 | 32.87183 | -97.02977 | 1997 ft | 173 kts | 179° |
| 2026-05-03 22:12 | 32.85939 | -97.02899 | 2655 ft | 189 kts | 179° |
| 2026-05-03 22:12 | 32.84577 | -97.02658 | 3293 ft | 210 kts | 166° |
| 2026-05-03 22:13 | 32.83132 | -97.01943 | 3819 ft | 239 kts | 159° |
| 2026-05-03 22:13 | 32.81549 | -97.01097 | 4761 ft | 252 kts | 159° |
| 2026-05-03 22:13 | 32.79930 | -97.00217 | 5864 ft | 261 kts | 156° |
| 2026-05-03 22:13 | 32.78451 | -96.98931 | 7013 ft | 268 kts | 137° |
| 2026-05-03 22:14 | 32.77405 | -96.97063 | 7756 ft | 281 kts | 115° |
| 2026-05-03 22:14 | 32.76801 | -96.94817 | 8430 ft | 287 kts | 105° |
| 2026-05-03 22:14 | 32.76577 | -96.92460 | 9144 ft | 295 kts | 91° |
| 2026-05-03 22:14 | 32.76665 | -96.90002 | 9856 ft | 301 kts | 88° |
| 2026-05-03 22:15 | 32.76752 | -96.87449 | 10329 ft | 315 kts | 89° |
| 2026-05-03 22:15 | 32.76839 | -96.84795 | 10502 ft | 337 kts | 86° |
| 2026-05-03 22:15 | 32.77203 | -96.81956 | 10707 ft | 358 kts | 76° |
| 2026-05-03 22:15 | 32.77939 | -96.79094 | 11211 ft | 365 kts | 73° |
| 2026-05-03 22:16 | 32.78695 | -96.76202 | 11901 ft | 368 kts | 73° |
| 2026-05-03 22:16 | 32.79457 | -96.73273 | 12520 ft | 373 kts | 73° |
| 2026-05-03 22:16 | 32.80223 | -96.70315 | 13244 ft | 375 kts | 73° |
| 2026-05-03 22:16 | 32.81003 | -96.67296 | 13900 ft | 379 kts | 73° |
| 2026-05-03 22:17 | 32.81769 | -96.64332 | 14521 ft | 382 kts | 73° |
| 2026-05-03 22:17 | 32.82553 | -96.61296 | 15064 ft | 387 kts | 72° |
| 2026-05-03 22:17 | 32.83346 | -96.58223 | 15676 ft | 390 kts | 72° |
| 2026-05-03 22:17 | 32.84146 | -96.55119 | 16218 ft | 396 kts | 72° |
| 2026-05-03 22:18 | 32.84954 | -96.51980 | 16852 ft | 398 kts | 72° |
| 2026-05-03 22:18 | 32.85766 | -96.48811 | 17420 ft | 402 kts | 72° |
| 2026-05-03 22:18 | 32.86583 | -96.45619 | 18037 ft | 405 kts | 71° |
| 2026-05-03 22:18 | 32.87408 | -96.42394 | 18596 ft | 409 kts | 71° |
| 2026-05-03 22:19 | 32.88236 | -96.39145 | 19090 ft | 412 kts | 71° |
| 2026-05-03 22:19 | 32.89071 | -96.35869 | 19586 ft | 416 kts | 71° |
| 2026-05-03 22:19 | 32.89928 | -96.32567 | 20086 ft | 419 kts | 69° |
| 2026-05-03 22:19 | 32.90893 | -96.29280 | 20592 ft | 422 kts | 67° |
| 2026-05-03 22:20 | 32.91953 | -96.26003 | 21104 ft | 425 kts | 65° |
| 2026-05-03 22:20 | 32.93066 | -96.22726 | 21583 ft | 428 kts | 64° |
| 2026-05-03 22:20 | 32.94194 | -96.19432 | 22063 ft | 432 kts | 64° |
| 2026-05-03 22:20 | 32.95319 | -96.16102 | 22520 ft | 436 kts | 64° |
| 2026-05-03 22:21 | 32.96436 | -96.12727 | 22980 ft | 439 kts | 65° |
| 2026-05-03 22:21 | 32.97543 | -96.09321 | 23422 ft | 443 kts | 65° |
| 2026-05-03 22:21 | 32.98646 | -96.05890 | 23858 ft | 445 kts | 65° |
| 2026-05-03 22:21 | 32.99754 | -96.02429 | 24235 ft | 448 kts | 65° |
| 2026-05-03 22:22 | 33.00868 | -95.98948 | 24591 ft | 451 kts | 65° |
| 2026-05-03 22:22 | 33.01975 | -95.95492 | 24959 ft | 454 kts | 65° |
| 2026-05-03 22:22 | 33.03106 | -95.91968 | 25333 ft | 456 kts | 65° |
| 2026-05-03 22:22 | 33.04242 | -95.88428 | 25688 ft | 459 kts | 65° |
| 2026-05-03 22:23 | 33.05387 | -95.84862 | 26039 ft | 462 kts | 64° |
| 2026-05-03 22:23 | 33.06538 | -95.81274 | 26372 ft | 465 kts | 64° |
| 2026-05-03 22:23 | 33.07699 | -95.77661 | 26715 ft | 468 kts | 64° |
| 2026-05-03 22:23 | 33.08869 | -95.74020 | 27042 ft | 471 kts | 64° |
| 2026-05-03 22:24 | 33.10040 | -95.70364 | 27398 ft | 473 kts | 64° |
| 2026-05-03 22:24 | 33.11216 | -95.66688 | 27757 ft | 476 kts | 64° |
| 2026-05-03 22:24 | 33.12399 | -95.62993 | 28093 ft | 478 kts | 64° |
| 2026-05-03 22:24 | 33.13588 | -95.59278 | 28415 ft | 481 kts | 64° |
| 2026-05-03 22:25 | 33.14785 | -95.55535 | 28706 ft | 484 kts | 64° |
| 2026-05-03 22:25 | 33.15985 | -95.51771 | 29031 ft | 486 kts | 64° |
| 2026-05-03 22:25 | 33.17188 | -95.47985 | 29336 ft | 489 kts | 64° |
| 2026-05-03 22:25 | 33.18393 | -95.44189 | 29643 ft | 491 kts | 64° |
| 2026-05-03 22:26 | 33.19606 | -95.40361 | 29956 ft | 494 kts | 64° |
| 2026-05-03 22:26 | 33.20824 | -95.36513 | 30252 ft | 497 kts | 64° |
| 2026-05-03 22:26 | 33.22045 | -95.32645 | 30580 ft | 497 kts | 64° |
| 2026-05-03 22:26 | 33.23262 | -95.28786 | 30984 ft | 496 kts | 64° |
| 2026-05-03 22:27 | 33.24476 | -95.24940 | 31356 ft | 495 kts | 64° |
| 2026-05-03 22:27 | 33.25693 | -95.21096 | 31724 ft | 494 kts | 63° |
| 2026-05-03 22:27 | 33.26910 | -95.17253 | 32079 ft | 494 kts | 63° |
| 2026-05-03 22:27 | 33.28124 | -95.13410 | 32433 ft | 494 kts | 63° |
| 2026-05-03 22:28 | 33.29335 | -95.09565 | 32788 ft | 494 kts | 63° |
| 2026-05-03 22:28 | 33.30542 | -95.05718 | 33123 ft | 494 kts | 63° |
| 2026-05-03 22:28 | 33.31748 | -95.01866 | 33470 ft | 494 kts | 63° |
| 2026-05-03 22:28 | 33.32933 | -94.98071 | 33804 ft | 494 kts | 63° |
| 2026-05-03 22:29 | 33.34132 | -94.94230 | 34155 ft | 493 kts | 63° |
| 2026-05-03 22:29 | 33.35322 | -94.90395 | 34502 ft | 491 kts | 63° |
| 2026-05-03 22:29 | 33.36510 | -94.86566 | 34809 ft | 491 kts | 63° |
| 2026-05-03 22:29 | 33.37701 | -94.82736 | 35090 ft | 491 kts | 63° |
| 2026-05-03 22:30 | 33.38892 | -94.78909 | 35355 ft | 491 kts | 63° |
| 2026-05-03 22:30 | 33.40083 | -94.75082 | 35626 ft | 491 kts | 63° |
| 2026-05-03 22:30 | 33.41276 | -94.71255 | 35899 ft | 491 kts | 63° |
| 2026-05-03 22:30 | 33.42468 | -94.67419 | 36165 ft | 491 kts | 62° |
| 2026-05-03 22:31 | 33.43658 | -94.63585 | 36423 ft | 492 kts | 62° |
| 2026-05-03 22:31 | 33.44845 | -94.59745 | 36682 ft | 492 kts | 62° |
| 2026-05-03 22:31 | 33.46029 | -94.55903 | 36943 ft | 492 kts | 63° |
| 2026-05-03 22:31 | 33.47215 | -94.52058 | 37074 ft | 491 kts | 62° |
| 2026-05-03 22:32 | 33.48392 | -94.48239 | 37095 ft | 488 kts | 62° |
| 2026-05-03 22:32 | 33.50735 | -94.40625 | 37091 ft | 486 kts | 62° |
| 2026-05-03 22:33 | 33.53060 | -94.33020 | 37092 ft | 486 kts | 62° |
| 2026-05-03 22:33 | 33.55381 | -94.25414 | 37090 ft | 486 kts | 63° |
| 2026-05-03 22:34 | 33.57679 | -94.17780 | 37118 ft | 487 kts | 63° |
| 2026-05-03 22:34 | 33.59946 | -94.10139 | 37115 ft | 486 kts | 63° |
| 2026-05-03 22:35 | 33.62210 | -94.02484 | 37128 ft | 486 kts | 64° |
| 2026-05-03 22:35 | 33.64475 | -93.94851 | 37115 ft | 485 kts | 64° |
| 2026-05-03 22:36 | 33.66732 | -93.87233 | 37113 ft | 484 kts | 64° |
| 2026-05-03 22:36 | 33.68981 | -93.79614 | 37128 ft | 484 kts | 64° |
| 2026-05-03 22:37 | 33.71213 | -93.72038 | 37125 ft | 484 kts | 64° |
| 2026-05-03 22:37 | 33.73443 | -93.64415 | 37121 ft | 483 kts | 64° |
| 2026-05-03 22:38 | 33.75308 | -93.58028 | 37114 ft | 483 kts | 64° |
| 2026-05-03 22:38 | 33.77531 | -93.50407 | 37121 ft | 483 kts | 64° |
| 2026-05-03 22:39 | 33.79752 | -93.42784 | 37112 ft | 483 kts | 64° |
| 2026-05-03 22:39 | 33.81964 | -93.35160 | 37119 ft | 483 kts | 64° |
| 2026-05-03 22:40 | 33.84172 | -93.27534 | 37113 ft | 483 kts | 64° |
| 2026-05-03 22:40 | 33.86375 | -93.19912 | 37101 ft | 482 kts | 64° |
| 2026-05-03 22:41 | 33.88571 | -93.12336 | 37101 ft | 482 kts | 64° |
| 2026-05-03 22:41 | 33.91030 | -93.04883 | 37108 ft | 477 kts | 58° |
| 2026-05-03 22:42 | 33.93770 | -92.97607 | 37079 ft | 474 kts | 59° |
| 2026-05-03 22:42 | 33.96496 | -92.90384 | 37081 ft | 474 kts | 59° |
| 2026-05-03 22:43 | 33.99222 | -92.83141 | 37083 ft | 474 kts | 59° |
| 2026-05-03 22:43 | 34.01941 | -92.75889 | 37100 ft | 475 kts | 59° |
| 2026-05-03 22:44 | 34.04659 | -92.68619 | 37105 ft | 475 kts | 59° |
| 2026-05-03 22:44 | 34.07373 | -92.61348 | 37122 ft | 475 kts | 59° |
| 2026-05-03 22:45 | 34.10059 | -92.54121 | 37119 ft | 475 kts | 59° |
| 2026-05-03 22:45 | 34.12765 | -92.46844 | 37116 ft | 475 kts | 59° |
| 2026-05-03 22:46 | 34.15461 | -92.39571 | 37114 ft | 475 kts | 59° |
| 2026-05-03 22:46 | 34.18152 | -92.32294 | 37111 ft | 475 kts | 59° |
| 2026-05-03 22:47 | 34.20835 | -92.25016 | 37082 ft | 472 kts | 59° |
| 2026-05-03 22:47 | 34.23492 | -92.17793 | 37077 ft | 470 kts | 59° |
| 2026-05-03 22:48 | 34.26159 | -92.10556 | 37081 ft | 471 kts | 59° |
| 2026-05-03 22:48 | 34.28822 | -92.03312 | 37088 ft | 471 kts | 59° |
| 2026-05-03 22:49 | 34.31479 | -91.96061 | 37094 ft | 472 kts | 59° |
| 2026-05-03 22:49 | 34.34129 | -91.88788 | 37119 ft | 472 kts | 59° |
| 2026-05-03 22:50 | 34.36773 | -91.81510 | 37122 ft | 472 kts | 59° |
| 2026-05-03 22:50 | 34.39411 | -91.74238 | 37120 ft | 472 kts | 59° |
| 2026-05-03 22:51 | 34.42031 | -91.67005 | 37121 ft | 472 kts | 59° |
| 2026-05-03 22:51 | 34.44664 | -91.59732 | 37121 ft | 471 kts | 59° |
| 2026-05-03 22:52 | 34.47292 | -91.52458 | 37152 ft | 471 kts | 60° |
| 2026-05-03 22:52 | 34.49913 | -91.45180 | 37098 ft | 469 kts | 60° |
| 2026-05-03 22:53 | 34.52521 | -91.37920 | 37100 ft | 470 kts | 60° |
| 2026-05-03 22:53 | 34.55123 | -91.30644 | 37106 ft | 470 kts | 60° |
| 2026-05-03 22:54 | 34.57725 | -91.23357 | 37115 ft | 471 kts | 60° |
| 2026-05-03 22:54 | 34.60331 | -91.16059 | 37122 ft | 471 kts | 60° |
| 2026-05-03 22:55 | 34.62940 | -91.08757 | 37129 ft | 471 kts | 60° |
| 2026-05-03 22:55 | 34.65535 | -91.01450 | 37124 ft | 471 kts | 60° |
| 2026-05-03 22:56 | 34.68120 | -90.94140 | 37121 ft | 471 kts | 60° |
| 2026-05-03 22:56 | 34.70703 | -90.86829 | 37123 ft | 471 kts | 60° |
| 2026-05-03 22:57 | 34.73283 | -90.79517 | 37139 ft | 471 kts | 60° |
| 2026-05-03 22:57 | 34.75864 | -90.72183 | 37113 ft | 470 kts | 60° |
| 2026-05-03 22:58 | 34.78427 | -90.64877 | 37108 ft | 470 kts | 61° |
| 2026-05-03 22:58 | 34.80990 | -90.57559 | 37105 ft | 470 kts | 61° |
| 2026-05-03 22:59 | 34.83550 | -90.50235 | 37111 ft | 470 kts | 61° |
| 2026-05-03 22:59 | 34.86092 | -90.42944 | 37110 ft | 470 kts | 61° |
| 2026-05-03 23:00 | 34.88647 | -90.35604 | 37128 ft | 470 kts | 61° |
| 2026-05-03 23:00 | 34.91197 | -90.28259 | 37113 ft | 471 kts | 61° |
| 2026-05-03 23:01 | 34.93738 | -90.20900 | 37113 ft | 471 kts | 61° |
| 2026-05-03 23:01 | 34.96278 | -90.13544 | 37100 ft | 471 kts | 61° |
| 2026-05-03 23:02 | 34.98820 | -90.06183 | 37109 ft | 471 kts | 61° |
| 2026-05-03 23:02 | 35.00647 | -89.98463 | 37116 ft | 482 kts | 79° |
| 2026-05-03 23:03 | 35.00396 | -89.90251 | 37107 ft | 490 kts | 97° |
| 2026-05-03 23:03 | 34.99233 | -89.82039 | 37111 ft | 491 kts | 97° |
| 2026-05-03 23:04 | 34.98092 | -89.73871 | 37105 ft | 492 kts | 97° |
| 2026-05-03 23:04 | 34.96936 | -89.65649 | 37112 ft | 492 kts | 97° |
| 2026-05-03 23:05 | 34.95773 | -89.57428 | 37117 ft | 492 kts | 97° |
| 2026-05-03 23:05 | 34.94602 | -89.49206 | 37125 ft | 492 kts | 97° |
| 2026-05-03 23:06 | 34.93418 | -89.40984 | 37132 ft | 492 kts | 97° |
| 2026-05-03 23:06 | 34.92234 | -89.32773 | 37144 ft | 492 kts | 97° |
| 2026-05-03 23:07 | 34.91044 | -89.24558 | 37140 ft | 492 kts | 97° |
| 2026-05-03 23:07 | 34.89852 | -89.16354 | 37152 ft | 492 kts | 97° |
| 2026-05-03 23:08 | 34.88656 | -89.08157 | 37145 ft | 491 kts | 97° |
| 2026-05-03 23:08 | 34.87455 | -88.99972 | 37142 ft | 491 kts | 97° |
| 2026-05-03 23:09 | 34.86239 | -88.91786 | 37141 ft | 491 kts | 98° |
| 2026-05-03 23:09 | 34.85020 | -88.83607 | 37153 ft | 491 kts | 98° |
| 2026-05-03 23:10 | 34.83806 | -88.75442 | 37139 ft | 490 kts | 98° |
| 2026-05-03 23:10 | 34.82580 | -88.67270 | 37134 ft | 490 kts | 98° |
| 2026-05-03 23:11 | 34.81345 | -88.59113 | 37133 ft | 490 kts | 98° |
| 2026-05-03 23:11 | 34.80116 | -88.50948 | 37134 ft | 490 kts | 98° |
| 2026-05-03 23:12 | 34.78878 | -88.42796 | 37147 ft | 490 kts | 98° |
| 2026-05-03 23:12 | 34.77631 | -88.34648 | 37148 ft | 490 kts | 98° |
| 2026-05-03 23:13 | 34.76377 | -88.26511 | 37145 ft | 489 kts | 98° |
| 2026-05-03 23:13 | 34.75122 | -88.18382 | 37147 ft | 489 kts | 98° |
| 2026-05-03 23:14 | 34.73865 | -88.10248 | 37148 ft | 489 kts | 98° |
| 2026-05-03 23:14 | 34.72604 | -88.02119 | 37151 ft | 489 kts | 99° |
| 2026-05-03 23:15 | 34.71336 | -87.94009 | 37129 ft | 488 kts | 99° |
| 2026-05-03 23:15 | 34.70056 | -87.85906 | 37139 ft | 488 kts | 99° |
| 2026-05-03 23:16 | 34.68781 | -87.77820 | 37135 ft | 487 kts | 99° |
| 2026-05-03 23:16 | 34.67508 | -87.69768 | 37136 ft | 482 kts | 99° |
| 2026-05-03 23:16 | 34.66874 | -87.65784 | 36808 ft | 480 kts | 99° |
| 2026-05-03 23:17 | 34.66241 | -87.61808 | 36371 ft | 479 kts | 99° |
| 2026-05-03 23:17 | 34.65611 | -87.57836 | 35993 ft | 479 kts | 99° |
| 2026-05-03 23:17 | 34.64976 | -87.53862 | 35620 ft | 479 kts | 99° |
| 2026-05-03 23:17 | 34.64336 | -87.49885 | 35247 ft | 479 kts | 99° |
| 2026-05-03 23:18 | 34.63696 | -87.45921 | 34883 ft | 480 kts | 99° |
| 2026-05-03 23:18 | 34.63272 | -87.43284 | 34643 ft | 480 kts | 99° |
| 2026-05-03 23:18 | 34.62612 | -87.39317 | 34289 ft | 480 kts | 100° |
| 2026-05-03 23:18 | 34.61906 | -87.35355 | 33911 ft | 480 kts | 101° |
| 2026-05-03 23:19 | 34.61169 | -87.31395 | 33500 ft | 480 kts | 101° |
| 2026-05-03 23:19 | 34.60419 | -87.27455 | 33162 ft | 478 kts | 102° |
| 2026-05-03 23:19 | 34.59670 | -87.23528 | 33116 ft | 477 kts | 101° |
| 2026-05-03 23:20 | 34.58192 | -87.15659 | 33137 ft | 478 kts | 101° |
| 2026-05-03 23:20 | 34.56740 | -87.07766 | 33143 ft | 482 kts | 101° |
| 2026-05-03 23:21 | 34.55354 | -86.99720 | 33146 ft | 490 kts | 100° |
| 2026-05-03 23:21 | 34.53832 | -86.91663 | 33132 ft | 487 kts | 106° |
| 2026-05-03 23:22 | 34.50825 | -86.80063 | 32727 ft | 479 kts | 107° |
| 2026-05-03 23:22 | 34.49821 | -86.76217 | 32464 ft | 478 kts | 107° |
| 2026-05-03 23:22 | 34.48821 | -86.72402 | 31936 ft | 477 kts | 107° |
| 2026-05-03 23:23 | 34.47815 | -86.68569 | 31235 ft | 478 kts | 107° |
| 2026-05-03 23:23 | 34.46811 | -86.64731 | 30648 ft | 476 kts | 107° |
| 2026-05-03 23:23 | 34.45813 | -86.60918 | 30154 ft | 472 kts | 107° |
| 2026-05-03 23:23 | 34.44826 | -86.57140 | 29579 ft | 468 kts | 107° |
| 2026-05-03 23:24 | 34.43844 | -86.53395 | 29018 ft | 464 kts | 107° |
| 2026-05-03 23:24 | 34.42872 | -86.49689 | 28454 ft | 460 kts | 107° |
| 2026-05-03 23:24 | 34.41906 | -86.46008 | 27933 ft | 456 kts | 107° |
| 2026-05-03 23:24 | 34.40950 | -86.42370 | 27417 ft | 451 kts | 107° |
| 2026-05-03 23:25 | 34.40003 | -86.38775 | 26902 ft | 447 kts | 107° |
| 2026-05-03 23:25 | 34.39057 | -86.35193 | 26372 ft | 444 kts | 107° |
| 2026-05-03 23:25 | 34.38118 | -86.31649 | 25857 ft | 440 kts | 107° |
| 2026-05-03 23:25 | 34.37181 | -86.28132 | 25349 ft | 437 kts | 107° |
| 2026-05-03 23:26 | 34.36252 | -86.24642 | 24877 ft | 434 kts | 107° |
| 2026-05-03 23:26 | 34.35328 | -86.21172 | 24414 ft | 432 kts | 107° |
| 2026-05-03 23:26 | 34.34408 | -86.17727 | 24164 ft | 430 kts | 108° |
| 2026-05-03 23:26 | 34.33488 | -86.14282 | 23920 ft | 430 kts | 108° |
| 2026-05-03 23:27 | 34.32580 | -86.10833 | 23682 ft | 429 kts | 107° |
| 2026-05-03 23:27 | 34.31692 | -86.07393 | 23415 ft | 427 kts | 107° |
| 2026-05-03 23:27 | 34.30814 | -86.03960 | 23140 ft | 426 kts | 107° |
| 2026-05-03 23:27 | 34.29951 | -86.00586 | 22874 ft | 424 kts | 107° |
| 2026-05-03 23:28 | 34.29079 | -85.97190 | 22613 ft | 422 kts | 107° |
| 2026-05-03 23:28 | 34.28205 | -85.93812 | 22355 ft | 421 kts | 107° |
| 2026-05-03 23:28 | 34.27326 | -85.90442 | 22087 ft | 419 kts | 107° |
| 2026-05-03 23:28 | 34.26453 | -85.87094 | 21816 ft | 417 kts | 107° |
| 2026-05-03 23:29 | 34.25579 | -85.83756 | 21560 ft | 415 kts | 107° |
| 2026-05-03 23:29 | 34.24705 | -85.80430 | 21306 ft | 413 kts | 107° |
| 2026-05-03 23:29 | 34.23837 | -85.77125 | 21060 ft | 412 kts | 107° |
| 2026-05-03 23:29 | 34.22973 | -85.73832 | 20805 ft | 410 kts | 107° |
| 2026-05-03 23:30 | 34.22112 | -85.70548 | 20556 ft | 409 kts | 107° |
| 2026-05-03 23:30 | 34.21253 | -85.67276 | 20299 ft | 407 kts | 107° |
| 2026-05-03 23:30 | 34.20395 | -85.64022 | 20052 ft | 405 kts | 107° |
| 2026-05-03 23:30 | 34.19541 | -85.60789 | 19812 ft | 404 kts | 107° |
| 2026-05-03 23:31 | 34.18689 | -85.57558 | 19568 ft | 402 kts | 107° |
| 2026-05-03 23:31 | 34.17844 | -85.54349 | 19321 ft | 401 kts | 107° |
| 2026-05-03 23:31 | 34.17001 | -85.51149 | 19078 ft | 399 kts | 107° |
| 2026-05-03 23:31 | 34.16157 | -85.47962 | 18864 ft | 398 kts | 107° |
| 2026-05-03 23:32 | 34.15315 | -85.44784 | 18628 ft | 396 kts | 107° |
| 2026-05-03 23:32 | 34.14478 | -85.41616 | 18383 ft | 395 kts | 107° |
| 2026-05-03 23:32 | 34.13646 | -85.38461 | 18122 ft | 394 kts | 107° |
| 2026-05-03 23:32 | 34.12825 | -85.35315 | 17856 ft | 392 kts | 107° |
| 2026-05-03 23:33 | 34.12016 | -85.32189 | 17584 ft | 389 kts | 107° |
| 2026-05-03 23:33 | 34.11216 | -85.29072 | 17317 ft | 387 kts | 107° |
| 2026-05-03 23:33 | 34.10418 | -85.25978 | 17056 ft | 386 kts | 107° |
| 2026-05-03 23:33 | 34.09623 | -85.22905 | 16775 ft | 381 kts | 107° |
| 2026-05-03 23:34 | 34.08837 | -85.19873 | 16320 ft | 377 kts | 107° |
| 2026-05-03 23:34 | 34.08053 | -85.16867 | 15850 ft | 374 kts | 107° |
| 2026-05-03 23:34 | 34.07274 | -85.13890 | 15383 ft | 370 kts | 107° |
| 2026-05-03 23:34 | 34.06500 | -85.10943 | 14921 ft | 367 kts | 107° |
| 2026-05-03 23:35 | 34.05690 | -85.08039 | 14452 ft | 364 kts | 112° |
| 2026-05-03 23:35 | 34.04499 | -85.05361 | 14086 ft | 361 kts | 124° |
| 2026-05-03 23:35 | 34.02890 | -85.03029 | 13985 ft | 362 kts | 136° |
| 2026-05-03 23:35 | 34.01000 | -85.01022 | 14011 ft | 363 kts | 140° |
| 2026-05-03 23:36 | 33.99085 | -84.99027 | 14003 ft | 364 kts | 140° |
| 2026-05-03 23:36 | 33.97163 | -84.97019 | 13212 ft | 371 kts | 140° |
| 2026-05-03 23:36 | 33.95210 | -84.94979 | 12680 ft | 367 kts | 140° |
| 2026-05-03 23:36 | 33.93309 | -84.92997 | 12564 ft | 358 kts | 140° |
| 2026-05-03 23:37 | 33.91430 | -84.91045 | 12341 ft | 355 kts | 140° |
| 2026-05-03 23:37 | 33.89557 | -84.89105 | 12112 ft | 354 kts | 140° |
| 2026-05-03 23:37 | 33.87693 | -84.87181 | 11884 ft | 353 kts | 140° |
| 2026-05-03 23:37 | 33.85858 | -84.85287 | 11659 ft | 351 kts | 140° |
| 2026-05-03 23:38 | 33.84006 | -84.83376 | 11429 ft | 350 kts | 140° |
| 2026-05-03 23:38 | 33.82136 | -84.81442 | 11193 ft | 349 kts | 140° |
| 2026-05-03 23:38 | 33.80295 | -84.79542 | 10973 ft | 348 kts | 140° |
| 2026-05-03 23:38 | 33.78479 | -84.77672 | 10752 ft | 347 kts | 140° |
| 2026-05-03 23:39 | 33.76650 | -84.75785 | 10532 ft | 346 kts | 139° |
| 2026-05-03 23:39 | 33.75009 | -84.73748 | 10368 ft | 333 kts | 126° |
| 2026-05-03 23:39 | 33.73903 | -84.71373 | 10245 ft | 319 kts | 110° |
| 2026-05-03 23:39 | 33.73343 | -84.68856 | 10072 ft | 307 kts | 95° |
| 2026-05-03 23:40 | 33.73273 | -84.66323 | 9927 ft | 299 kts | 87° |
| 2026-05-03 23:40 | 33.73289 | -84.63828 | 9740 ft | 300 kts | 88° |
| 2026-05-03 23:40 | 33.73296 | -84.61326 | 9552 ft | 299 kts | 88° |
| 2026-05-03 23:40 | 33.73301 | -84.58831 | 9356 ft | 298 kts | 88° |
| 2026-05-03 23:41 | 33.73302 | -84.56343 | 9169 ft | 297 kts | 88° |
| 2026-05-03 23:41 | 33.73300 | -84.53864 | 8982 ft | 296 kts | 88° |
| 2026-05-03 23:41 | 33.73297 | -84.51394 | 8848 ft | 295 kts | 88° |
| 2026-05-03 23:41 | 33.73296 | -84.48938 | 8721 ft | 294 kts | 88° |
| 2026-05-03 23:42 | 33.73293 | -84.46478 | 8571 ft | 294 kts | 88° |
| 2026-05-03 23:42 | 33.73291 | -84.44029 | 8462 ft | 293 kts | 88° |
| 2026-05-03 23:42 | 33.73290 | -84.41587 | 8338 ft | 292 kts | 88° |
| 2026-05-03 23:42 | 33.73289 | -84.39155 | 8212 ft | 291 kts | 88° |
| 2026-05-03 23:43 | 33.73290 | -84.36724 | 8084 ft | 291 kts | 88° |
| 2026-05-03 23:43 | 33.73291 | -84.34298 | 7972 ft | 290 kts | 88° |
| 2026-05-03 23:43 | 33.73290 | -84.31883 | 7831 ft | 289 kts | 88° |
| 2026-05-03 23:43 | 33.73290 | -84.29473 | 7710 ft | 288 kts | 88° |
| 2026-05-03 23:44 | 33.73291 | -84.27105 | 7587 ft | 278 kts | 88° |
| 2026-05-03 23:44 | 33.73292 | -84.24826 | 7469 ft | 268 kts | 88° |
| 2026-05-03 23:44 | 33.73295 | -84.22621 | 7367 ft | 260 kts | 88° |
| 2026-05-03 23:44 | 33.73297 | -84.20480 | 7240 ft | 254 kts | 88° |
| 2026-05-03 23:45 | 33.73302 | -84.18367 | 7120 ft | 252 kts | 88° |
| 2026-05-03 23:45 | 33.73307 | -84.16262 | 6918 ft | 252 kts | 88° |
| 2026-05-03 23:45 | 33.73311 | -84.14165 | 6613 ft | 249 kts | 89° |
| 2026-05-03 23:45 | 33.73308 | -84.12082 | 6113 ft | 253 kts | 89° |
| 2026-05-03 23:46 | 33.73308 | -84.09924 | 5421 ft | 263 kts | 89° |
| 2026-05-03 23:46 | 33.73314 | -84.07736 | 4913 ft | 256 kts | 89° |
| 2026-05-03 23:46 | 33.73323 | -84.05652 | 4769 ft | 242 kts | 89° |
| 2026-05-03 23:46 | 33.73227 | -84.03681 | 4707 ft | 235 kts | 104° |
| 2026-05-03 23:47 | 33.72411 | -84.02022 | 4651 ft | 232 kts | 138° |
| 2026-05-03 23:47 | 33.71017 | -84.01109 | 4577 ft | 229 kts | 167° |
| 2026-05-03 23:47 | 33.69458 | -84.00768 | 4498 ft | 228 kts | 174° |
| 2026-05-03 23:47 | 33.67894 | -84.00819 | 4409 ft | 225 kts | 196° |
| 2026-05-03 23:48 | 33.66506 | -84.01630 | 4276 ft | 221 kts | 219° |
| 2026-05-03 23:48 | 33.65485 | -84.02986 | 4236 ft | 219 kts | 240° |
| 2026-05-03 23:48 | 33.64958 | -84.04672 | 4189 ft | 217 kts | 261° |
| 2026-05-03 23:48 | 33.64899 | -84.06470 | 4149 ft | 216 kts | 271° |
| 2026-05-03 23:49 | 33.64907 | -84.08275 | 4094 ft | 216 kts | 271° |
| 2026-05-03 23:49 | 33.64913 | -84.10073 | 4046 ft | 216 kts | 271° |
| 2026-05-03 23:49 | 33.64918 | -84.11880 | 3998 ft | 217 kts | 271° |
| 2026-05-03 23:49 | 33.64922 | -84.13692 | 3952 ft | 217 kts | 271° |
| 2026-05-03 23:50 | 33.64926 | -84.15500 | 3994 ft | 217 kts | 271° |
| 2026-05-03 23:50 | 33.64928 | -84.16702 | 4000 ft | 217 kts | 271° |
| 2026-05-03 23:50 | 33.64933 | -84.19114 | 4018 ft | 215 kts | 271° |
| 2026-05-03 23:50 | 33.64936 | -84.20893 | 4008 ft | 217 kts | 270° |
| 2026-05-03 23:51 | 33.64939 | -84.22702 | 3908 ft | 217 kts | 271° |
| 2026-05-03 23:51 | 33.64942 | -84.24504 | 3682 ft | 214 kts | 271° |
| 2026-05-03 23:51 | 33.64944 | -84.26291 | 3415 ft | 214 kts | 271° |
| 2026-05-03 23:51 | 33.64946 | -84.28008 | 3134 ft | 196 kts | 271° |
| 2026-05-03 23:52 | 33.64947 | -84.29571 | 2891 ft | 176 kts | 271° |
| 2026-05-03 23:52 | 33.64948 | -84.30924 | 2673 ft | 151 kts | 271° |
| 2026-05-03 23:52 | 33.64949 | -84.32137 | 2478 ft | 141 kts | 271° |
| 2026-05-03 23:52 | 33.64950 | -84.33305 | 2289 ft | 139 kts | 271° |
| 2026-05-03 23:53 | 33.64951 | -84.34464 | 2107 ft | 137 kts | 271° |
| 2026-05-03 23:53 | 33.64952 | -84.35603 | 1927 ft | 138 kts | 272° |
| 2026-05-03 23:53 | 33.64950 | -84.36748 | 1738 ft | 137 kts | 271° |
| 2026-05-03 23:53 | 33.64959 | -84.37894 | 1525 ft | 137 kts | 271° |
| 2026-05-03 23:54 | 33.64951 | -84.39032 | 1378 ft | 136 kts | 271° |
| 2026-05-03 23:54 | 33.64958 | -84.40166 | 1191 ft | 135 kts | 271° |
| 2026-05-03 23:54 | 33.64952 | -84.41283 | 1037 ft | 129 kts | 270° |
| 2026-05-03 23:54 | 33.64954 | -84.42168 | 1036 ft | 82 kts | 270° |
| 2026-05-03 23:55 | 33.64934 | -84.42640 | 1036 ft | 36 kts | 253° |
| 2026-05-03 23:55 | 33.64836 | -84.42883 | 1035 ft | 31 kts | 241° |
| 2026-05-03 23:55 | 33.64791 | -84.43126 | 1036 ft | 30 kts | 270° |
| 2026-05-03 23:55 | 33.64821 | -84.43368 | 1036 ft | 30 kts | 295° |
| 2026-05-03 23:56 | 33.64843 | -84.43611 | 1036 ft | 30 kts | 270° |
| 2026-05-03 23:56 | 33.64832 | -84.43857 | 1035 ft | 30 kts | 249° |
| 2026-05-03 23:56 | 33.64783 | -84.44069 | 1035 ft | 26 kts | 271° |
| 2026-05-03 23:56 | 33.64767 | -84.44283 | 1036 ft | 25 kts | 235° |
| 2026-05-03 23:57 | 33.64613 | -84.44309 | 1036 ft | 25 kts | 150° |
| 2026-05-03 23:57 | 33.64563 | -84.44141 | 1035 ft | 20 kts | 120° |
| 2026-05-03 23:57 | 33.64504 | -84.44069 | 1035 ft | 18 kts | 109° |
| 2026-05-03 23:57 | 33.64523 | -84.43859 | 1035 ft | 20 kts | 80° |
| 2026-05-03 23:58 | 33.64542 | -84.43685 | 1036 ft | 22 kts | 86° |
| 2026-05-03 23:58 | 33.64542 | -84.43499 | 1036 ft | 23 kts | 90° |
| 2026-05-03 23:58 | 33.64542 | -84.43367 | 1036 ft | 24 kts | 89° |
| 2026-05-03 23:58 | 33.64541 | -84.43165 | 1036 ft | 21 kts | 95° |
| 2026-05-03 23:59 | 33.64445 | -84.43081 | 1036 ft | 18 kts | 145° |
| 2026-05-03 23:59 | 33.64318 | -84.43066 | 1036 ft | 19 kts | 181° |
| 2026-05-03 23:59 | 33.64179 | -84.43066 | 1036 ft | 21 kts | 180° |
| 2026-05-03 23:59 | 33.64028 | -84.43066 | 1036 ft | 23 kts | 180° |
| 2026-05-04 00:00 | 33.63886 | -84.43068 | 1035 ft | 12 kts | 180° |
| 2026-05-04 00:00 | 33.63817 | -84.43059 | 1035 ft | 9 kts | 158° |
| 2026-05-04 00:00 | 33.63788 | -84.43009 | 1035 ft | 3 kts | 93° |
| 2026-05-04 00:00 | 33.63788 | -84.42986 | 1035 ft | 1 kts | 92° |
| 2026-05-04 00:01 | 33.63787 | -84.42982 | 1035 ft | 0 kts | 92° |